createdAt,value
2023-04-24T00:00:36.583Z,93.94
2023-04-24T00:01:36.581Z,93.86
2023-04-24T00:02:36.648Z,93.64
2023-04-24T00:03:36.756Z,93.70
2023-04-24T00:04:35.214Z,93.32
2023-04-24T00:05:36.513Z,93.39
2023-04-24T00:06:36.514Z,93.62
2023-04-24T00:07:36.487Z,93.78
2023-04-24T00:08:36.469Z,93.72
2023-04-24T00:09:36.476Z,93.82
2023-04-24T00:10:36.448Z,93.78
2023-04-24T00:11:36.425Z,93.81
2023-04-24T00:12:36.425Z,93.96
2023-04-24T00:13:36.404Z,94.06
2023-04-24T00:14:36.409Z,94.11
2023-04-24T00:15:36.392Z,94.27
2023-04-24T00:16:36.388Z,94.50
2023-04-24T00:17:36.359Z,94.57
2023-04-24T00:18:36.351Z,94.48
2023-04-24T00:19:36.346Z,94.46
2023-04-24T00:20:36.308Z,94.20
2023-04-24T00:21:36.300Z,94.26
2023-04-24T00:22:36.305Z,94.33
2023-04-24T00:23:36.271Z,94.10
2023-04-24T00:24:36.288Z,93.96
2023-04-24T00:25:36.274Z,93.99
2023-04-24T00:26:36.229Z,94.07
2023-04-24T00:27:36.235Z,94.24
2023-04-24T00:28:36.205Z,94.18
2023-04-24T00:29:36.203Z,94.05
2023-04-24T00:30:36.181Z,94.21
2023-04-24T00:31:36.196Z,94.22
2023-04-24T00:32:36.181Z,94.08
2023-04-24T00:33:36.135Z,94.07
2023-04-24T00:34:36.148Z,94.12
2023-04-24T00:35:36.109Z,93.97
2023-04-24T00:36:36.100Z,94.00
2023-04-24T00:37:36.089Z,94.07
2023-04-24T00:38:36.088Z,94.25
2023-04-24T00:39:36.075Z,94.26
2023-04-24T00:40:36.040Z,94.60
2023-04-24T00:41:36.039Z,94.67
2023-04-24T00:42:36.033Z,94.27
2023-04-24T00:43:36.011Z,94.50
2023-04-24T00:44:36.026Z,94.72
2023-04-24T00:45:35.980Z,95.00
2023-04-24T00:46:36.020Z,95.48
2023-04-24T00:47:35.998Z,96.24
2023-04-24T00:48:35.933Z,97.11
2023-04-24T00:49:35.923Z,97.69
2023-04-24T00:50:35.930Z,98.51
2023-04-24T00:51:35.895Z,99.17
2023-04-24T00:52:35.910Z,99.75
2023-04-24T00:53:35.856Z,100.00
2023-04-24T00:54:35.858Z,100.00
2023-04-24T00:55:35.859Z,100.00
2023-04-24T00:56:35.823Z,100.00
2023-04-24T00:57:35.811Z,100.00
2023-04-24T00:58:35.822Z,100.00
2023-04-24T00:59:36.123Z,100.00
2023-04-24T01:00:35.803Z,100.00
2023-04-24T01:01:35.792Z,100.00
2023-04-24T01:02:35.980Z,100.00
2023-04-24T01:03:35.883Z,100.00
2023-04-24T01:04:34.746Z,100.00
2023-04-24T01:05:35.729Z,100.00
2023-04-24T01:06:35.703Z,100.00
2023-04-24T01:07:35.692Z,100.00
2023-04-24T01:08:34.630Z,100.00
2023-04-24T01:09:35.648Z,100.00
2023-04-24T01:10:35.652Z,100.00
2023-04-24T01:11:35.620Z,100.00
2023-04-24T01:12:35.240Z,100.00
2023-04-24T01:13:35.596Z,100.00
2023-04-24T01:14:35.589Z,100.00
2023-04-24T01:15:35.615Z,100.00
2023-04-24T01:16:34.109Z,100.00
2023-04-24T01:17:35.561Z,100.00
2023-04-24T01:18:35.541Z,100.00
2023-04-24T01:19:35.542Z,100.00
2023-04-24T01:20:34.620Z,100.00
2023-04-24T01:21:35.497Z,100.00
2023-04-24T01:22:35.480Z,100.00
2023-04-24T01:23:35.481Z,100.00
2023-04-24T01:24:35.451Z,100.00
2023-04-24T01:25:35.460Z,100.00
2023-04-24T01:26:35.428Z,100.00
2023-04-24T01:27:35.412Z,100.00
2023-04-24T01:28:35.413Z,100.00
2023-04-24T01:29:35.385Z,100.00
2023-04-24T01:30:35.388Z,100.00
2023-04-24T01:31:35.390Z,100.00
2023-04-24T01:32:35.381Z,100.00
2023-04-24T01:33:35.332Z,100.00
2023-04-24T01:34:35.325Z,100.00
2023-04-24T01:35:35.316Z,100.00
2023-04-24T01:36:35.284Z,100.00
2023-04-24T01:37:35.271Z,100.00
2023-04-24T01:38:35.275Z,100.00
2023-04-24T01:39:35.291Z,100.00
2023-04-24T01:40:35.260Z,100.00
2023-04-24T01:41:35.255Z,100.00
2023-04-24T01:42:35.219Z,100.00
2023-04-24T01:43:35.190Z,100.00
2023-04-24T01:44:35.178Z,100.00
2023-04-24T01:45:35.198Z,100.00
2023-04-24T01:46:35.182Z,100.00
2023-04-24T01:47:35.249Z,100.00
2023-04-24T01:48:35.119Z,100.00
2023-04-24T01:49:35.110Z,100.00
2023-04-24T01:50:35.160Z,100.00
2023-04-24T01:51:35.100Z,100.00
2023-04-24T01:52:35.082Z,100.00
2023-04-24T01:53:35.058Z,100.00
2023-04-24T01:54:35.050Z,100.00
2023-04-24T01:55:35.041Z,100.00
2023-04-24T01:56:35.017Z,100.00
2023-04-24T01:57:35.001Z,100.00
2023-04-24T01:58:34.982Z,100.00
2023-04-24T01:59:34.972Z,100.00
2023-04-24T02:00:35.004Z,100.00
2023-04-24T02:01:34.951Z,100.00
2023-04-24T02:02:35.087Z,100.00
2023-04-24T02:03:35.150Z,100.00
2023-04-24T02:04:33.910Z,100.00
2023-04-24T02:05:34.916Z,100.00
2023-04-24T02:06:34.890Z,100.00
2023-04-24T02:07:34.875Z,100.00
2023-04-24T02:08:34.855Z,100.00
2023-04-24T02:09:34.841Z,100.00
2023-04-24T02:10:34.837Z,100.00
2023-04-24T02:11:34.818Z,100.00
2023-04-24T02:12:34.795Z,100.00
2023-04-24T02:13:34.783Z,100.00
2023-04-24T02:14:34.779Z,100.00
2023-04-24T02:15:34.780Z,100.00
2023-04-24T02:16:34.813Z,100.00
2023-04-24T02:17:34.739Z,100.00
2023-04-24T02:18:34.715Z,100.00
2023-04-24T02:19:34.708Z,100.00
2023-04-24T02:20:33.595Z,100.00
2023-04-24T02:21:34.667Z,100.00
2023-04-24T02:22:34.659Z,100.00
2023-04-24T02:23:34.647Z,100.00
2023-04-24T02:24:34.632Z,100.00
2023-04-24T02:25:34.625Z,100.00
2023-04-24T02:26:34.621Z,100.00
2023-04-24T02:27:34.578Z,100.00
2023-04-24T02:28:34.609Z,100.00
2023-04-24T02:29:34.598Z,100.00
2023-04-24T02:30:34.577Z,100.00
2023-04-24T02:31:34.542Z,100.00
2023-04-24T02:32:33.582Z,100.00
2023-04-24T02:33:34.496Z,100.00
2023-04-24T02:34:34.499Z,100.00
2023-04-24T02:35:34.554Z,100.00
2023-04-24T02:36:34.471Z,100.00
2023-04-24T02:37:34.457Z,100.00
2023-04-24T02:38:34.454Z,100.00
2023-04-24T02:39:34.423Z,100.00
2023-04-24T02:40:34.420Z,100.00
2023-04-24T02:41:34.405Z,100.00
2023-04-24T02:42:34.383Z,100.00
2023-04-24T02:43:34.364Z,100.00
2023-04-24T02:44:34.345Z,100.00
2023-04-24T02:45:34.347Z,100.00
2023-04-24T02:46:34.346Z,100.00
2023-04-24T02:47:34.339Z,100.00
2023-04-24T02:48:34.300Z,100.00
2023-04-24T02:49:34.292Z,100.00
2023-04-24T02:50:34.271Z,100.00
2023-04-24T02:51:34.265Z,100.00
2023-04-24T02:52:32.899Z,100.00
2023-04-24T02:53:34.237Z,100.00
2023-04-24T02:54:34.218Z,100.00
2023-04-24T02:55:34.197Z,100.00
2023-04-24T02:56:34.198Z,100.00
2023-04-24T02:57:34.178Z,100.00
2023-04-24T02:58:34.164Z,100.00
2023-04-24T02:59:34.145Z,100.00
2023-04-24T03:00:34.125Z,100.00
2023-04-24T03:01:34.155Z,99.96
2023-04-24T03:02:34.188Z,99.96
2023-04-24T03:03:34.167Z,100.00
2023-04-24T03:04:34.290Z,99.99
2023-04-24T03:05:34.065Z,99.86
2023-04-24T03:06:34.059Z,99.81
2023-04-24T03:07:34.051Z,99.76
2023-04-24T03:08:34.019Z,99.64
2023-04-24T03:09:34.013Z,99.71
2023-04-24T03:10:34.009Z,99.75
2023-04-24T03:11:34.009Z,99.72
2023-04-24T03:12:33.982Z,99.74
2023-04-24T03:13:33.950Z,99.66
2023-04-24T03:14:33.950Z,99.54
2023-04-24T03:15:33.925Z,99.41
2023-04-24T03:16:32.676Z,99.31
2023-04-24T03:17:34.004Z,99.32
2023-04-24T03:18:33.916Z,99.32
2023-04-24T03:19:33.884Z,99.44
2023-04-24T03:20:33.873Z,99.34
2023-04-24T03:21:33.913Z,99.37
2023-04-24T03:22:33.933Z,99.49
2023-04-24T03:23:33.819Z,99.58
2023-04-24T03:24:32.708Z,99.68
2023-04-24T03:25:33.795Z,99.70
2023-04-24T03:26:33.800Z,99.64
2023-04-24T03:27:33.765Z,99.70
2023-04-24T03:28:33.763Z,99.69
2023-04-24T03:29:33.751Z,99.70
2023-04-24T03:30:33.742Z,99.64
2023-04-24T03:31:33.755Z,99.54
2023-04-24T03:32:32.695Z,99.62
2023-04-24T03:33:33.714Z,99.33
2023-04-24T03:34:33.680Z,99.14
2023-04-24T03:35:33.666Z,98.79
2023-04-24T03:36:33.677Z,98.91
2023-04-24T03:37:33.631Z,99.35
2023-04-24T03:38:33.624Z,99.61
2023-04-24T03:39:33.624Z,99.56
2023-04-24T03:40:32.654Z,99.32
2023-04-24T03:41:32.653Z,99.28
2023-04-24T03:42:32.640Z,99.43
2023-04-24T03:43:33.572Z,99.66
2023-04-24T03:44:33.554Z,99.83
2023-04-24T03:45:33.535Z,99.91
2023-04-24T03:46:33.610Z,100.00
2023-04-24T03:47:33.566Z,100.00
2023-04-24T03:48:32.058Z,100.00
2023-04-24T03:49:33.478Z,99.91
2023-04-24T03:50:33.470Z,99.96
2023-04-24T03:51:32.967Z,100.00
2023-04-24T03:52:33.506Z,99.95
2023-04-24T03:53:33.429Z,99.93
2023-04-24T03:54:33.424Z,100.00
2023-04-24T03:55:33.402Z,100.00
2023-04-24T03:56:33.395Z,100.00
2023-04-24T03:57:33.373Z,99.79
2023-04-24T03:58:33.350Z,99.77
2023-04-24T03:59:33.347Z,99.66
2023-04-24T04:00:33.330Z,99.56
2023-04-24T04:01:33.342Z,99.00
2023-04-24T04:02:33.411Z,98.79
2023-04-24T04:03:33.549Z,98.70
2023-04-24T04:04:32.117Z,98.68
2023-04-24T04:05:33.256Z,98.85
2023-04-24T04:06:33.266Z,98.61
2023-04-24T04:07:33.238Z,98.42
2023-04-24T04:08:33.234Z,98.58
2023-04-24T04:09:33.199Z,98.82
2023-04-24T04:10:33.197Z,99.10
2023-04-24T04:11:33.190Z,99.29
2023-04-24T04:12:33.157Z,99.34
2023-04-24T04:13:33.151Z,99.35
2023-04-24T04:14:33.142Z,99.43
2023-04-24T04:15:33.115Z,99.38
2023-04-24T04:16:33.160Z,99.52
2023-04-24T04:17:33.163Z,99.62
2023-04-24T04:18:33.075Z,99.76
2023-04-24T04:19:33.089Z,99.89
2023-04-24T04:20:31.600Z,100.00
2023-04-24T04:21:33.059Z,100.00
2023-04-24T04:22:33.026Z,100.00
2023-04-24T04:23:32.515Z,100.00
2023-04-24T04:24:33.030Z,100.00
2023-04-24T04:25:32.985Z,100.00
2023-04-24T04:26:32.969Z,100.00
2023-04-24T04:27:31.520Z,100.00
2023-04-24T04:28:31.928Z,100.00
2023-04-24T04:29:32.930Z,100.00
2023-04-24T04:30:31.466Z,100.00
2023-04-24T04:31:32.004Z,100.00
2023-04-24T04:32:32.958Z,100.00
2023-04-24T04:33:31.922Z,100.00
2023-04-24T04:34:31.993Z,100.00
2023-04-24T04:35:31.924Z,100.00
2023-04-24T04:36:31.416Z,100.00
2023-04-24T04:37:32.865Z,100.00
2023-04-24T04:38:31.497Z,100.00
2023-04-24T04:39:32.797Z,100.00
2023-04-24T04:40:32.792Z,100.00
2023-04-24T04:41:32.806Z,100.00
2023-04-24T04:42:32.768Z,100.00
2023-04-24T04:43:32.745Z,99.85
2023-04-24T04:44:31.284Z,99.92
2023-04-24T04:45:32.752Z,100.00
2023-04-24T04:46:31.645Z,100.00
2023-04-24T04:47:32.727Z,100.00
2023-04-24T04:48:32.674Z,100.00
2023-04-24T04:49:32.665Z,100.00
2023-04-24T04:50:32.650Z,100.00
2023-04-24T04:51:31.783Z,100.00
2023-04-24T04:52:31.181Z,100.00
2023-04-24T04:53:32.626Z,100.00
2023-04-24T04:54:31.543Z,100.00
2023-04-24T04:55:32.583Z,100.00
2023-04-24T04:56:32.581Z,100.00
2023-04-24T04:57:32.565Z,100.00
2023-04-24T04:58:32.554Z,100.00
2023-04-24T04:59:32.537Z,100.00
2023-04-24T05:00:32.606Z,100.00
2023-04-24T05:01:32.559Z,100.00
2023-04-24T05:02:32.548Z,100.00
2023-04-24T05:03:32.615Z,100.00
2023-04-24T05:04:32.666Z,100.00
2023-04-24T05:05:32.450Z,100.00
2023-04-24T05:06:32.438Z,100.00
2023-04-24T05:07:32.425Z,100.00
2023-04-24T05:08:32.397Z,100.00
2023-04-24T05:09:32.419Z,99.72
2023-04-24T05:10:30.953Z,99.39
2023-04-24T05:11:32.379Z,99.30
2023-04-24T05:12:32.352Z,99.54
2023-04-24T05:13:40.325Z,99.75
2023-04-24T05:14:33.336Z,99.82
2023-04-24T05:15:32.343Z,99.79
2023-04-24T05:16:30.880Z,99.82
2023-04-24T05:17:32.358Z,99.89
2023-04-24T05:18:31.838Z,100.00
2023-04-24T05:19:32.258Z,100.00
2023-04-24T05:20:32.268Z,100.00
2023-04-24T05:21:32.266Z,99.38
2023-04-24T05:22:32.229Z,99.35
2023-04-24T05:23:32.211Z,99.07
2023-04-24T05:24:32.210Z,98.80
2023-04-24T05:25:32.202Z,98.49
2023-04-24T05:26:32.176Z,98.50
2023-04-24T05:27:32.179Z,98.53
2023-04-24T05:28:32.150Z,98.68
2023-04-24T05:29:32.155Z,98.16
2023-04-24T05:30:32.113Z,97.44
2023-04-24T05:31:32.168Z,97.17
2023-04-24T05:32:30.649Z,97.55
2023-04-24T05:33:32.057Z,98.00
2023-04-24T05:34:32.051Z,97.98
2023-04-24T05:35:32.044Z,98.06
2023-04-24T05:36:32.034Z,98.12
2023-04-24T05:37:32.040Z,97.94
2023-04-24T05:38:32.002Z,97.70
2023-04-24T05:39:31.982Z,96.91
2023-04-24T05:40:31.975Z,96.85
2023-04-24T05:41:31.984Z,96.93
2023-04-24T05:42:31.959Z,96.84
2023-04-24T05:43:30.757Z,96.85
2023-04-24T05:44:31.915Z,96.58
2023-04-24T05:45:31.935Z,96.78
2023-04-24T05:46:32.087Z,96.82
2023-04-24T05:47:30.796Z,96.72
2023-04-24T05:48:30.747Z,96.79
2023-04-24T05:49:31.862Z,96.68
2023-04-24T05:50:31.836Z,96.29
2023-04-24T05:51:30.754Z,96.67
2023-04-24T05:52:30.761Z,95.87
2023-04-24T05:53:31.808Z,95.73
2023-04-24T05:54:31.813Z,95.56
2023-04-24T05:55:30.767Z,95.64
2023-04-24T05:56:30.313Z,94.26
2023-04-24T05:57:31.937Z,93.85
2023-04-24T05:58:30.761Z,93.40
2023-04-24T05:59:30.761Z,93.51
2023-04-24T06:00:30.761Z,93.83
2023-04-24T06:01:31.693Z,93.86
2023-04-24T06:02:31.771Z,93.89
2023-04-24T06:03:30.855Z,93.89
2023-04-24T06:04:30.644Z,93.68
2023-04-24T06:05:31.844Z,92.28
2023-04-24T06:06:31.620Z,91.88
2023-04-24T06:07:31.626Z,92.66
2023-04-24T06:08:31.590Z,92.38
2023-04-24T06:09:31.578Z,93.18
2023-04-24T06:10:31.577Z,92.93
2023-04-24T06:11:31.560Z,92.50
2023-04-24T06:12:30.147Z,91.88
2023-04-24T06:13:31.541Z,92.36
2023-04-24T06:14:31.516Z,91.61
2023-04-24T06:15:30.126Z,92.13
2023-04-24T06:16:31.515Z,92.88
2023-04-24T06:17:31.514Z,92.68
2023-04-24T06:18:31.465Z,90.95
2023-04-24T06:19:29.989Z,91.69
2023-04-24T06:20:29.990Z,91.89
2023-04-24T06:21:31.450Z,91.54
2023-04-24T06:22:31.414Z,91.84
2023-04-24T06:23:31.401Z,91.44
2023-04-24T06:24:31.373Z,91.57
2023-04-24T06:25:31.362Z,90.85
2023-04-24T06:26:31.366Z,89.68
2023-04-24T06:27:31.345Z,90.44
2023-04-24T06:28:31.330Z,89.81
2023-04-24T06:29:31.334Z,89.10
2023-04-24T06:30:31.316Z,88.89
2023-04-24T06:31:31.325Z,89.30
2023-04-24T06:32:31.290Z,89.89
2023-04-24T06:33:31.288Z,89.88
2023-04-24T06:34:31.237Z,90.60
2023-04-24T06:35:29.790Z,90.74
2023-04-24T06:36:29.760Z,90.99
2023-04-24T06:37:31.210Z,90.89
2023-04-24T06:38:31.172Z,90.62
2023-04-24T06:39:31.165Z,91.07
2023-04-24T06:40:31.160Z,91.19
2023-04-24T06:41:31.145Z,91.15
2023-04-24T06:42:31.148Z,90.99
2023-04-24T06:43:29.661Z,91.80
2023-04-24T06:44:30.013Z,91.44
2023-04-24T06:45:31.116Z,91.86
2023-04-24T06:46:31.163Z,91.35
2023-04-24T06:47:31.139Z,91.89
2023-04-24T06:48:31.041Z,91.26
2023-04-24T06:49:31.050Z,91.36
2023-04-24T06:50:31.026Z,91.32
2023-04-24T06:51:29.557Z,91.17
2023-04-24T06:52:30.027Z,90.90
2023-04-24T06:53:30.017Z,90.68
2023-04-24T06:54:30.061Z,91.30
2023-04-24T06:55:30.949Z,91.07
2023-04-24T06:56:29.505Z,90.51
2023-04-24T06:57:31.145Z,91.66
2023-04-24T06:58:30.928Z,90.47
2023-04-24T06:59:29.560Z,90.81
2023-04-24T07:00:29.601Z,91.26
2023-04-24T07:01:30.903Z,89.81
2023-04-24T07:02:29.777Z,89.91
2023-04-24T07:03:29.755Z,90.99
2023-04-24T07:04:29.805Z,90.64
2023-04-24T07:05:30.814Z,89.82
2023-04-24T07:06:30.799Z,90.02
2023-04-24T07:07:29.364Z,89.39
2023-04-24T07:08:29.810Z,89.38
2023-04-24T07:09:30.764Z,89.33
2023-04-24T07:10:29.876Z,89.68
2023-04-24T07:11:30.737Z,89.21
2023-04-24T07:12:30.732Z,89.43
2023-04-24T07:13:30.728Z,89.68
2023-04-24T07:14:30.696Z,89.60
2023-04-24T07:15:29.525Z,88.95
2023-04-24T07:16:30.765Z,89.92
2023-04-24T07:17:30.689Z,90.29
2023-04-24T07:18:30.635Z,90.68
2023-04-24T07:19:30.623Z,90.88
2023-04-24T07:20:30.660Z,90.99
2023-04-24T07:21:30.600Z,90.95
2023-04-24T07:22:30.589Z,90.32
2023-04-24T07:23:29.110Z,90.38
2023-04-24T07:24:30.952Z,90.24
2023-04-24T07:25:30.548Z,90.73
2023-04-24T07:26:30.531Z,91.35
2023-04-24T07:27:30.521Z,91.31
2023-04-24T07:28:30.508Z,90.72
2023-04-24T07:29:30.492Z,91.18
2023-04-24T07:30:30.478Z,90.67
2023-04-24T07:31:29.069Z,90.51
2023-04-24T07:32:30.470Z,90.97
2023-04-24T07:33:30.436Z,90.60
2023-04-24T07:34:30.434Z,90.72
2023-04-24T07:35:30.405Z,91.35
2023-04-24T07:36:30.384Z,90.69
2023-04-24T07:37:30.384Z,90.42
2023-04-24T07:38:30.365Z,90.86
2023-04-24T07:39:29.064Z,91.27
2023-04-24T07:40:30.332Z,91.25
2023-04-24T07:41:30.323Z,90.62
2023-04-24T07:42:30.311Z,90.69
2023-04-24T07:43:30.301Z,90.16
2023-04-24T07:44:30.281Z,90.04
2023-04-24T07:45:30.259Z,90.23
2023-04-24T07:46:30.308Z,90.73
2023-04-24T07:47:30.336Z,90.98
2023-04-24T07:48:30.229Z,91.09
2023-04-24T07:49:30.220Z,91.21
2023-04-24T07:50:30.221Z,91.53
2023-04-24T07:51:30.195Z,90.81
2023-04-24T07:52:30.189Z,91.51
2023-04-24T07:53:30.159Z,91.13
2023-04-24T07:54:30.147Z,90.89
2023-04-24T07:55:28.678Z,90.77
2023-04-24T07:56:30.114Z,91.11
2023-04-24T07:57:30.132Z,90.83
2023-04-24T07:58:30.094Z,91.43
2023-04-24T07:59:30.089Z,90.81
2023-04-24T08:00:30.134Z,90.57
2023-04-24T08:01:30.059Z,89.83
2023-04-24T08:02:30.086Z,90.17
2023-04-24T08:03:30.140Z,90.17
2023-04-24T08:04:30.236Z,90.55
2023-04-24T08:05:30.053Z,90.56
2023-04-24T08:06:28.881Z,91.38
2023-04-24T08:07:28.872Z,90.79
2023-04-24T08:08:29.952Z,90.42
2023-04-24T08:09:29.940Z,90.11
2023-04-24T08:10:29.933Z,89.90
2023-04-24T08:11:28.870Z,90.15
2023-04-24T08:12:29.910Z,90.09
2023-04-24T08:13:29.884Z,90.84
2023-04-24T08:14:29.867Z,90.78
2023-04-24T08:15:29.856Z,90.21
2023-04-24T08:16:29.268Z,89.28
2023-04-24T08:17:29.847Z,87.90
2023-04-24T08:18:28.912Z,88.17
2023-04-24T08:19:28.552Z,88.91
2023-04-24T08:20:29.797Z,88.23
2023-04-24T08:21:29.765Z,88.47
2023-04-24T08:22:29.771Z,88.55
2023-04-24T08:23:29.760Z,89.19
2023-04-24T08:24:29.737Z,89.05
2023-04-24T08:25:29.717Z,88.21
2023-04-24T08:26:29.705Z,88.85
2023-04-24T08:27:29.658Z,88.73
2023-04-24T08:28:29.685Z,88.48
2023-04-24T08:29:29.662Z,88.88
2023-04-24T08:30:29.664Z,88.24
2023-04-24T08:31:28.859Z,88.91
2023-04-24T08:32:29.650Z,90.05
2023-04-24T08:33:29.621Z,90.61
2023-04-24T08:34:29.596Z,90.51
2023-04-24T08:35:28.123Z,91.18
2023-04-24T08:36:43.429Z,92.04
2023-04-24T08:37:30.557Z,92.60
2023-04-24T08:38:29.555Z,92.35
2023-04-24T08:39:29.551Z,92.13
2023-04-24T08:40:29.522Z,93.32
2023-04-24T08:41:29.503Z,93.88
2023-04-24T08:42:29.479Z,93.63
2023-04-24T08:43:29.475Z,93.92
2023-04-24T08:44:29.460Z,94.62
2023-04-24T08:45:29.444Z,93.73
2023-04-24T08:46:29.476Z,94.15
2023-04-24T08:47:29.418Z,94.79
2023-04-24T08:48:31.557Z,94.79
2023-04-24T08:49:29.398Z,94.61
2023-04-24T08:50:29.380Z,94.21
2023-04-24T08:51:27.908Z,94.52
2023-04-24T08:52:29.357Z,94.32
2023-04-24T08:53:29.369Z,94.21
2023-04-24T08:54:29.327Z,93.93
2023-04-24T08:55:29.309Z,94.09
2023-04-24T08:56:29.350Z,94.00
2023-04-24T08:57:29.293Z,93.82
2023-04-24T08:58:29.263Z,93.14
2023-04-24T08:59:27.800Z,93.72
2023-04-24T09:00:29.236Z,94.06
2023-04-24T09:01:29.267Z,94.02
2023-04-24T09:02:29.335Z,93.99
2023-04-24T09:03:29.427Z,92.92
2023-04-24T09:04:29.365Z,92.85
2023-04-24T09:05:28.540Z,92.79
2023-04-24T09:06:28.165Z,93.10
2023-04-24T09:07:27.700Z,93.72
2023-04-24T09:08:28.142Z,93.37
2023-04-24T09:09:29.106Z,93.59
2023-04-24T09:10:28.179Z,93.71
2023-04-24T09:11:28.142Z,93.07
2023-04-24T09:12:28.307Z,92.93
2023-04-24T09:13:28.163Z,93.54
2023-04-24T09:14:29.047Z,93.08
2023-04-24T09:15:27.725Z,92.18
2023-04-24T09:16:29.165Z,92.26
2023-04-24T09:17:28.193Z,92.34
2023-04-24T09:18:27.557Z,91.97
2023-04-24T09:19:28.989Z,92.07
2023-04-24T09:20:28.986Z,91.38
2023-04-24T09:21:28.958Z,92.10
2023-04-24T09:22:28.947Z,90.99
2023-04-24T09:23:27.498Z,91.36
2023-04-24T09:24:28.913Z,91.13
2023-04-24T09:25:27.750Z,92.35
2023-04-24T09:26:27.810Z,92.27
2023-04-24T09:27:28.886Z,91.91
2023-04-24T09:28:28.886Z,91.72
2023-04-24T09:29:28.867Z,91.66
2023-04-24T09:30:28.352Z,91.75
2023-04-24T09:31:27.429Z,91.52
2023-04-24T09:32:28.830Z,91.81
2023-04-24T09:33:28.804Z,92.43
2023-04-24T09:34:28.781Z,92.02
2023-04-24T09:35:28.768Z,92.24
2023-04-24T09:36:28.762Z,92.23
2023-04-24T09:37:28.750Z,92.35
2023-04-24T09:38:28.742Z,92.38
2023-04-24T09:39:28.726Z,92.68
2023-04-24T09:40:28.716Z,93.01
2023-04-24T09:41:28.710Z,92.79
2023-04-24T09:42:28.691Z,92.77
2023-04-24T09:43:28.673Z,92.47
2023-04-24T09:44:29.226Z,92.62
2023-04-24T09:45:28.646Z,92.82
2023-04-24T09:46:28.707Z,92.97
2023-04-24T09:47:28.610Z,92.57
2023-04-24T09:48:28.606Z,91.69
2023-04-24T09:49:28.597Z,92.35
2023-04-24T09:50:28.569Z,92.67
2023-04-24T09:51:28.697Z,92.34
2023-04-24T09:52:28.547Z,92.42
2023-04-24T09:53:28.548Z,92.18
2023-04-24T09:54:28.524Z,92.07
2023-04-24T09:55:27.183Z,91.41
2023-04-24T09:56:28.542Z,90.77
2023-04-24T09:57:28.488Z,89.98
2023-04-24T09:58:28.464Z,90.40
2023-04-24T09:59:28.448Z,89.52
2023-04-24T10:00:28.449Z,90.54
2023-04-24T10:01:28.438Z,90.17
2023-04-24T10:02:28.474Z,90.78
2023-04-24T10:03:28.414Z,90.32
2023-04-24T10:04:28.454Z,89.28
2023-04-24T10:05:28.363Z,88.89
2023-04-24T10:06:28.359Z,89.15
2023-04-24T10:07:28.351Z,88.53
2023-04-24T10:08:28.344Z,88.44
2023-04-24T10:09:28.320Z,89.17
2023-04-24T10:10:28.304Z,88.60
2023-04-24T10:11:26.850Z,88.95
2023-04-24T10:12:28.280Z,88.70
2023-04-24T10:13:28.258Z,88.96
2023-04-24T10:14:28.241Z,87.85
2023-04-24T10:15:28.223Z,87.80
2023-04-24T10:16:28.434Z,87.24
2023-04-24T10:17:28.201Z,86.62
2023-04-24T10:18:28.221Z,87.51
2023-04-24T10:19:26.985Z,88.21
2023-04-24T10:20:28.174Z,87.46
2023-04-24T10:21:28.152Z,87.51
2023-04-24T10:22:28.130Z,85.94
2023-04-24T10:23:28.125Z,86.50
2023-04-24T10:24:28.104Z,85.68
2023-04-24T10:25:28.097Z,85.68
2023-04-24T10:26:28.075Z,86.08
2023-04-24T10:27:28.073Z,86.08
2023-04-24T10:28:28.066Z,84.82
2023-04-24T10:29:26.991Z,85.45
2023-04-24T10:30:28.030Z,85.07
2023-04-24T10:31:28.084Z,84.31
2023-04-24T10:32:28.044Z,84.02
2023-04-24T10:33:27.992Z,83.88
2023-04-24T10:34:26.992Z,83.39
2023-04-24T10:35:26.990Z,85.15
2023-04-24T10:36:26.990Z,83.48
2023-04-24T10:37:26.994Z,81.92
2023-04-24T10:38:27.006Z,80.08
2023-04-24T10:39:28.719Z,80.65
2023-04-24T10:40:27.894Z,80.51
2023-04-24T10:41:27.879Z,79.92
2023-04-24T10:42:27.002Z,78.90
2023-04-24T10:43:27.858Z,80.68
2023-04-24T10:44:27.860Z,79.25
2023-04-24T10:45:27.820Z,79.79
2023-04-24T10:46:27.831Z,79.36
2023-04-24T10:47:27.811Z,78.36
2023-04-24T10:48:27.806Z,79.12
2023-04-24T10:49:27.767Z,77.61
2023-04-24T10:50:27.766Z,77.89
2023-04-24T10:51:27.736Z,76.68
2023-04-24T10:52:27.726Z,76.34
2023-04-24T10:53:27.759Z,76.10
2023-04-24T10:54:27.754Z,76.46
2023-04-24T10:55:27.194Z,77.29
2023-04-24T10:56:27.668Z,78.40
2023-04-24T10:57:27.655Z,76.84
2023-04-24T10:58:26.212Z,78.19
2023-04-24T10:59:27.655Z,79.09
2023-04-24T11:00:27.625Z,78.95
2023-04-24T11:01:27.757Z,80.26
2023-04-24T11:02:27.638Z,79.52
2023-04-24T11:03:27.809Z,78.18
2023-04-24T11:04:27.626Z,78.24
2023-04-24T11:05:27.553Z,78.36
2023-04-24T11:06:26.682Z,79.99
2023-04-24T11:07:27.510Z,79.72
2023-04-24T11:08:27.509Z,79.87
2023-04-24T11:09:26.057Z,80.37
2023-04-24T11:10:27.473Z,79.30
2023-04-24T11:11:27.471Z,79.38
2023-04-24T11:12:27.447Z,79.43
2023-04-24T11:13:27.445Z,79.50
2023-04-24T11:14:27.415Z,79.46
2023-04-24T11:15:27.399Z,78.86
2023-04-24T11:16:27.408Z,78.21
2023-04-24T11:17:27.382Z,77.73
2023-04-24T11:18:27.373Z,78.73
2023-04-24T11:19:27.410Z,77.42
2023-04-24T11:20:28.450Z,77.47
2023-04-24T11:21:27.323Z,76.21
2023-04-24T11:22:27.290Z,76.91
2023-04-24T11:23:27.304Z,75.90
2023-04-24T11:24:27.282Z,76.06
2023-04-24T11:25:27.256Z,76.34
2023-04-24T11:26:27.240Z,76.03
2023-04-24T11:27:27.234Z,76.35
2023-04-24T11:28:27.232Z,75.55
2023-04-24T11:29:26.668Z,75.77
2023-04-24T11:30:26.306Z,76.04
2023-04-24T11:31:26.299Z,75.81
2023-04-24T11:32:27.259Z,76.93
2023-04-24T11:33:26.022Z,76.81
2023-04-24T11:34:26.246Z,76.97
2023-04-24T11:35:27.110Z,76.33
2023-04-24T11:36:27.150Z,77.17
2023-04-24T11:37:27.106Z,75.85
2023-04-24T11:38:27.071Z,76.16
2023-04-24T11:39:27.084Z,75.72
2023-04-24T11:40:27.094Z,76.20
2023-04-24T11:41:25.596Z,76.28
2023-04-24T11:42:27.040Z,79.04
2023-04-24T11:43:27.019Z,78.03
2023-04-24T11:44:27.016Z,77.55
2023-04-24T11:45:26.988Z,76.85
2023-04-24T11:46:25.796Z,78.03
2023-04-24T11:47:27.023Z,76.67
2023-04-24T11:48:26.954Z,77.78
2023-04-24T11:49:26.943Z,77.14
2023-04-24T11:50:26.937Z,75.72
2023-04-24T11:51:30.691Z,76.47
2023-04-24T11:52:27.894Z,75.50
2023-04-24T11:53:25.929Z,76.43
2023-04-24T11:54:26.874Z,74.97
2023-04-24T11:55:26.854Z,74.72
2023-04-24T11:56:26.845Z,75.62
2023-04-24T11:57:26.822Z,75.40
2023-04-24T11:58:26.812Z,74.04
2023-04-24T11:59:26.813Z,76.02
2023-04-24T12:00:26.797Z,78.52
2023-04-24T12:01:26.819Z,78.80
2023-04-24T12:02:25.623Z,81.40
2023-04-24T12:03:27.122Z,83.75
2023-04-24T12:04:26.979Z,85.96
2023-04-24T12:05:27.035Z,85.80
2023-04-24T12:06:26.701Z,87.58
2023-04-24T12:07:26.693Z,88.95
2023-04-24T12:08:26.685Z,89.37
2023-04-24T12:09:26.676Z,91.70
2023-04-24T12:10:26.650Z,90.41
2023-04-24T12:11:26.647Z,89.07
2023-04-24T12:12:26.640Z,89.02
2023-04-24T12:13:26.600Z,89.49
2023-04-24T12:14:26.608Z,91.03
2023-04-24T12:15:26.576Z,91.50
2023-04-24T12:16:26.621Z,91.07
2023-04-24T12:17:28.570Z,89.98
2023-04-24T12:18:25.094Z,89.64
2023-04-24T12:19:26.537Z,88.47
2023-04-24T12:20:26.523Z,87.91
2023-04-24T12:21:26.492Z,84.90
2023-04-24T12:22:26.485Z,85.38
2023-04-24T12:23:26.467Z,84.41
2023-04-24T12:24:26.482Z,83.43
2023-04-24T12:25:26.495Z,83.33
2023-04-24T12:26:26.427Z,80.82
2023-04-24T12:27:26.428Z,79.17
2023-04-24T12:28:26.473Z,77.30
2023-04-24T12:29:26.429Z,77.47
2023-04-24T12:30:26.388Z,76.96
2023-04-24T12:31:26.425Z,77.75
2023-04-24T12:32:28.248Z,77.70
2023-04-24T12:33:26.344Z,74.51
2023-04-24T12:34:26.345Z,74.89
2023-04-24T12:35:26.324Z,74.30
2023-04-24T12:36:26.311Z,72.64
2023-04-24T12:37:26.286Z,77.03
2023-04-24T12:38:26.281Z,77.19
2023-04-24T12:39:25.093Z,77.90
2023-04-24T12:40:26.269Z,78.16
2023-04-24T12:41:26.227Z,77.41
2023-04-24T12:42:25.099Z,77.38
2023-04-24T12:43:26.239Z,79.09
2023-04-24T12:44:26.183Z,77.55
2023-04-24T12:45:26.177Z,80.07
2023-04-24T12:46:26.205Z,79.44